Time;durP1;ratioP1;P1;durP2;ratioP2;P2;SDS_P1;SDS_P2;PMS_P1;PMS_P2;Temp;Humidity;BMP_temperature;BMP_pressure;BME280_temperature;BME280_humidity;BME280_pressure;Samples;Min_cycle;Max_cycle;Signal;HPM_P1;HPM_P2
2023/09/09 00:02:28;;;;;;;18.80;10.95;;;18.60;99.90;;;;;;9930333;30;20204;-80
2023/09/09 00:07:50;;;;;;;17.80;11.20;;;18.50;99.90;;;;;;9930992;30;20276;-80
2023/09/09 00:13:12;;;;;;;16.70;10.18;;;18.50;1.00;;;;;;9902651;29;20541;-80
2023/09/09 00:18:33;;;;;;;18.45;10.52;;;18.50;94.70;;;;;;9892590;29;20504;-80
2023/09/09 00:23:54;;;;;;;19.63;10.68;;;18.50;99.90;;;;;;9893418;30;20202;-80
2023/09/09 00:29:15;;;;;;;18.63;9.90;;;18.40;94.90;;;;;;9918216;29;20276;-80
2023/09/09 00:34:36;;;;;;;23.27;11.43;;;18.40;99.90;;;;;;9929185;30;20235;-80
2023/09/09 00:39:57;;;;;;;20.23;11.05;;;18.40;99.90;;;;;;9916368;30;20511;-80
2023/09/09 00:45:18;;;;;;;13.95;9.45;;;18.30;1.00;;;;;;9926949;29;20500;-80
2023/09/09 00:50:40;;;;;;;13.50;9.10;;;18.30;1.00;;;;;;9915542;29;20208;-80
2023/09/09 00:56:03;;;;;;;12.40;8.18;;;18.30;99.90;;;;;;9923970;29;20266;-79
2023/09/09 01:01:25;;;;;;;12.38;7.80;;;18.30;60.90;;;;;;9899238;29;20205;-80
2023/09/09 01:06:46;;;;;;;16.23;7.93;;;18.20;1.00;;;;;;9890589;30;20208;-80
2023/09/09 01:12:11;;;;;;;11.40;7.72;;;18.10;1.00;;;;;;9927856;29;20534;-80
2023/09/09 01:17:35;;;;;;;12.43;8.90;;;18.10;99.90;;;;;;9924573;29;20224;-80
2023/09/09 01:22:56;;;;;;;11.23;7.80;;;17.90;1.00;;;;;;9927850;30;20264;-80
2023/09/09 01:28:21;;;;;;;8.13;6.72;;;17.80;99.90;;;;;;9915085;30;20280;-80
2023/09/09 01:33:42;;;;;;;9.80;7.43;;;17.80;99.90;;;;;;9913059;30;20320;-80
2023/09/09 01:39:03;;;;;;;10.75;7.30;;;17.60;99.90;;;;;;9925256;29;20213;-80
2023/09/09 01:44:25;;;;;;;8.55;6.53;;;17.70;1.00;;;;;;9927561;30;20429;-80
2023/09/09 01:49:47;;;;;;;8.88;6.82;;;17.70;99.90;;;;;;9915573;29;20400;-80
2023/09/09 01:55:08;;;;;;;9.60;7.28;;;17.70;66.40;;;;;;9890204;30;20418;-80
2023/09/09 02:00:30;;;;;;;14.55;9.35;;;17.70;99.90;;;;;;9910031;29;20234;-80
2023/09/09 02:05:51;;;;;;;14.50;10.18;;;17.60;1.00;;;;;;9906421;29;20240;-80
2023/09/09 02:11:12;;;;;;;13.85;9.73;;;17.50;1.00;;;;;;9921278;30;20294;-80
2023/09/09 02:16:33;;;;;;;15.40;9.52;;;17.50;1.00;;;;;;9934130;30;20557;-80
2023/09/09 02:28:13;;;;;;;8.95;6.55;;;17.50;99.90;;;;;;9909372;30;20202;-80
2023/09/09 02:33:34;;;;;;;7.90;6.80;;;17.40;1.00;;;;;;9903699;29;20230;-80
2023/09/09 02:38:55;;;;;;;11.25;6.93;;;17.40;1.00;;;;;;9896781;30;20220;-80
2023/09/09 02:44:17;;;;;;;7.13;6.38;;;;;;;;;;9896245;30;20293;-80
2023/09/09 02:49:39;;;;;;;10.82;6.05;;;17.30;99.90;;;;;;9922641;29;20221;-79
2023/09/09 02:55:00;;;;;;;9.52;6.68;;;17.30;99.90;;;;;;9883475;30;20435;-80
2023/09/09 03:00:21;;;;;;;8.93;5.97;;;17.20;99.90;;;;;;9919841;29;20205;-79
2023/09/09 03:05:43;;;;;;;7.90;6.75;;;17.10;99.90;;;;;;9918548;29;20221;-80
2023/09/09 03:11:04;;;;;;;8.80;7.15;;;17.10;1.00;;;;;;9931769;29;20213;-79
2023/09/09 03:16:27;;;;;;;10.07;7.45;;;17.10;99.90;;;;;;9907073;30;20250;-80
2023/09/09 03:21:48;;;;;;;9.73;7.82;;;17.10;1.00;;;;;;9915956;29;20537;-79
2023/09/09 03:27:09;;;;;;;10.48;8.07;;;17.20;1.00;;;;;;9908323;29;20462;-80
2023/09/09 03:32:31;;;;;;;10.40;7.20;;;17.10;99.90;;;;;;9894448;29;20260;-80
2023/09/09 03:37:52;;;;;;;11.75;6.55;;;17.00;1.00;;;;;;9896284;29;20197;-80
2023/09/09 03:43:14;;;;;;;7.03;6.22;;;17.00;99.90;;;;;;9893487;30;20288;-79
2023/09/09 03:48:36;;;;;;;8.70;6.00;;;16.90;1.00;;;;;;9920756;29;20503;-79
2023/09/09 03:53:57;;;;;;;8.68;6.22;;;16.80;1.00;;;;;;9917908;30;20311;-79
2023/09/09 03:59:18;;;;;;;9.07;6.88;;;16.80;99.90;;;;;;9913537;29;20507;-78
2023/09/09 04:04:39;;;;;;;7.30;6.03;;;16.80;99.90;;;;;;9917692;29;20225;-79
2023/09/09 04:15:20;;;;;;;7.72;6.38;;;16.80;1.00;;;;;;9927165;29;20248;-79
2023/09/09 04:20:42;;;;;;;9.30;7.25;;;16.80;27.60;;;;;;9930705;29;20253;-78
2023/09/09 04:26:04;;;;;;;11.27;7.75;;;16.80;99.90;;;;;;9903434;29;20504;-79
2023/09/09 04:31:25;;;;;;;7.72;6.82;;;;;;;;;;9880619;29;20819;-78
2023/09/09 04:36:46;;;;;;;9.90;7.32;;;16.80;1.00;;;;;;9894355;30;20217;-79
2023/09/09 04:42:11;;;;;;;12.35;8.55;;;16.80;1.00;;;;;;9894896;29;20588;-79
2023/09/09 04:47:32;;;;;;;12.40;8.57;;;16.80;1.00;;;;;;9912344;29;20216;-79
2023/09/09 04:52:53;;;;;;;8.02;7.07;;;16.80;1.00;;;;;;9919231;29;20237;-79
2023/09/09 04:58:14;;;;;;;8.70;6.45;;;17.00;1.00;;;;;;9912714;29;20269;-80
2023/09/09 05:03:36;;;;;;;9.25;6.13;;;17.10;14.30;;;;;;9926504;29;20208;-79
2023/09/09 05:08:57;;;;;;;6.85;6.15;;;17.20;99.90;;;;;;9914353;30;20507;-79
2023/09/09 05:14:19;;;;;;;11.75;6.57;;;17.30;99.90;;;;;;9924987;29;20228;-79
2023/09/09 05:19:40;;;;;;;8.68;7.15;;;17.40;99.90;;;;;;9914855;29;20559;-77
2023/09/09 05:25:01;;;;;;;9.00;6.97;;;17.40;1.00;;;;;;9901744;30;20221;-79
2023/09/09 05:30:23;;;;;;;9.40;6.85;;;17.50;99.90;;;;;;9908697;29;20201;-79
2023/09/09 05:35:44;;;;;;;8.75;6.93;;;17.60;99.90;;;;;;9890792;30;20551;-79
2023/09/09 05:41:06;;;;;;;8.57;6.78;;;17.80;71.60;;;;;;9897547;29;20278;-79
2023/09/09 05:46:27;;;;;;;8.25;6.25;;;17.90;1.00;;;;;;9927249;29;20228;-79
2023/09/09 05:51:48;;;;;;;8.32;6.43;;;18.20;1.00;;;;;;9929816;29;20254;-79
2023/09/09 05:57:10;;;;;;;5.97;5.30;;;18.40;99.90;;;;;;9892874;30;20256;-79
2023/09/09 06:02:32;;;;;;;11.25;6.57;;;18.60;99.90;;;;;;9925578;29;20209;-79
2023/09/09 06:07:53;;;;;;;6.78;6.07;;;18.80;1.00;;;;;;9914023;30;20522;-79
2023/09/09 06:13:14;;;;;;;6.97;5.75;;;18.90;1.00;;;;;;9923400;29;20422;-79
2023/09/09 06:18:36;;;;;;;8.25;6.47;;;18.90;1.00;;;;;;9926824;29;20281;-79
2023/09/09 06:23:57;;;;;;;7.40;6.15;;;;;;;;;;9924030;29;20219;-79
2023/09/09 06:29:19;;;;;;;9.45;6.68;;;19.40;99.90;;;;;;9914125;30;20213;-80
2023/09/09 06:34:40;;;;;;;7.90;6.20;;;19.70;99.90;;;;;;9900539;29;20461;-79
2023/09/09 06:40:01;;;;;;;6.75;6.05;;;20.60;1.00;;;;;;9876364;30;20206;-79
2023/09/09 06:45:23;;;;;;;10.30;5.88;;;;;;;;;;9923559;29;20205;-79
2023/09/09 06:50:45;;;;;;;6.05;5.38;;;22.30;1.00;;;;;;9890373;29;20208;-79
2023/09/09 06:56:07;;;;;;;7.20;5.25;;;23.10;1.00;;;;;;9930369;29;20249;-80
2023/09/09 07:01:28;;;;;;;6.95;5.80;;;23.00;1.00;;;;;;9931683;29;20201;-80
2023/09/09 07:06:49;;;;;;;8.73;5.97;;;23.60;1.00;;;;;;9932101;29;20255;-81
2023/09/09 07:12:20;;;;;;;6.80;4.57;;;23.70;1.00;;;;;;9931622;29;20247;-80
2023/09/09 07:17:43;;;;;;;6.70;5.07;;;23.90;1.00;;;;;;9931850;29;20217;-81
2023/09/09 07:23:04;;;;;;;5.53;4.50;;;24.50;1.00;;;;;;9942790;29;20225;-81
2023/09/09 07:28:25;;;;;;;6.95;4.60;;;25.30;99.90;;;;;;9932825;29;20201;-80
2023/09/09 07:33:46;;;;;;;4.93;4.30;;;26.00;99.90;;;;;;9911983;29;20241;-80
2023/09/09 07:39:08;;;;;;;4.57;4.18;;;26.80;99.90;;;;;;9896478;30;20267;-80
2023/09/09 07:44:29;;;;;;;5.95;4.38;;;27.40;99.90;;;;;;9923718;29;20213;-80
2023/09/09 07:49:50;;;;;;;4.97;4.10;;;27.40;99.90;;;;;;9930505;29;20205;-80
2023/09/09 07:55:11;;;;;;;5.88;4.53;;;27.30;99.90;;;;;;9904618;29;20296;-80
2023/09/09 08:00:33;;;;;;;6.22;4.28;;;27.50;99.90;;;;;;9919288;29;20213;-80
2023/09/09 08:05:56;;;;;;;5.93;4.22;;;27.70;99.90;;;;;;9926884;29;20221;-80
2023/09/09 08:11:17;;;;;;;10.57;5.18;;;27.80;99.90;;;;;;9929004;29;20197;-80
2023/09/09 08:16:38;;;;;;;8.75;4.55;;;28.00;99.90;;;;;;9926328;29;20243;-80
2023/09/09 08:21:59;;;;;;;6.53;4.95;;;28.10;99.90;;;;;;9928791;29;20213;-80
2023/09/09 08:27:20;;;;;;;9.52;5.25;;;28.40;99.90;;;;;;9930487;29;20495;-80
2023/09/09 08:32:41;;;;;;;8.07;4.70;;;;;;;;;;9919903;29;20228;-81
2023/09/09 08:38:04;;;;;;;5.57;4.43;;;;;;;;;;9891887;30;20241;-80
2023/09/09 08:43:40;;;;;;;8.25;4.55;;;29.40;99.90;;;;;;9908601;29;20217;-81
2023/09/09 08:49:04;;;;;;;5.53;4.47;;;29.60;99.90;;;;;;9927401;29;20288;-80
2023/09/09 08:54:26;;;;;;;5.10;4.60;;;30.10;99.90;;;;;;9907645;29;20642;-80
2023/09/09 08:59:48;;;;;;;8.90;5.75;;;30.70;99.90;;;;;;9907950;29;20445;-80
2023/09/09 09:18:34;;;;;;;24.10;12.95;;;31.00;99.90;;;;;;9850526;30;20288;-81
2023/09/09 09:23:57;;;;;;;9.02;6.35;;;31.40;99.90;;;;;;9847860;30;20536;-80
2023/09/09 09:29:18;;;;;;;20.95;11.70;;;31.50;99.90;;;;;;9837600;30;20257;-81
2023/09/09 09:34:39;;;;;;;7.10;4.78;;;31.30;99.90;;;;;;9849610;30;20254;-81
2023/09/09 09:40:00;;;;;;;13.45;8.05;;;;;;;;;;9846023;30;20269;-82
2023/09/09 09:45:26;;;;;;;8.20;4.82;;;;;;;;;;9849410;30;20210;-81
2023/09/09 09:50:52;;;;;;;9.35;5.00;;;;;;;;;;9820090;30;20245;-80
2023/09/09 09:56:13;;;;;;;10.35;5.80;;;;;;;;;;9884404;30;20253;-80
2023/09/09 10:01:36;;;;;;;7.75;5.55;;;;;;;;;;9902797;29;20589;-80
2023/09/09 10:06:59;;;;;;;8.07;4.35;;;;;;;;;;9927904;29;20202;-80
2023/09/09 10:12:31;;;;;;;5.18;4.32;;;;;;;;;;9912598;29;20518;-80
2023/09/09 10:17:59;;;;;;;4.60;4.03;;;;;;;;;;9926575;30;20276;-80
2023/09/09 10:23:22;;;;;;;6.50;4.38;;;;;;;;;;9924610;29;20499;-80
2023/09/09 10:28:44;;;;;;;8.73;4.50;;;;;;;;;;9929481;29;20208;-80
2023/09/09 10:34:06;;;;;;;7.05;4.93;;;32.40;1.00;;;;;;9903418;29;20551;-81
2023/09/09 10:39:28;;;;;;;5.43;4.75;;;;;;;;;;9934353;29;20204;-80
2023/09/09 10:44:49;;;;;;;6.53;3.83;;;;;;;;;;9932093;29;20399;-80
2023/09/09 10:50:10;;;;;;;8.93;4.35;;;34.60;99.90;;;;;;9927080;29;20499;-80
2023/09/09 10:55:31;;;;;;;5.93;4.60;;;34.00;99.90;;;;;;9896901;30;20246;-79
2023/09/09 11:00:53;;;;;;;6.07;4.40;;;34.20;99.90;;;;;;9923540;29;20209;-79
2023/09/09 11:06:31;;;;;;;7.00;4.45;;;34.60;99.90;;;;;;9932678;30;20221;-79
2023/09/09 11:11:55;;;;;;;5.43;4.20;;;34.80;99.90;;;;;;9929494;29;20400;-79
2023/09/09 11:17:17;;;;;;;10.95;4.97;;;35.00;99.90;;;;;;9933450;29;20229;-79
2023/09/09 11:22:41;;;;;;;4.80;4.40;;;35.30;99.90;;;;;;9931257;29;20236;-79
2023/09/09 11:28:04;;;;;;;6.35;5.28;;;35.10;99.90;;;;;;9931476;29;20217;-79
2023/09/09 11:33:25;;;;;;;11.82;6.63;;;35.10;99.90;;;;;;9907790;29;20234;-79
2023/09/09 11:38:46;;;;;;;10.55;4.78;;;35.30;99.90;;;;;;9926567;29;20292;-79
2023/09/09 11:55:16;;;;;;;4.80;4.40;;;35.30;99.90;;;;;;9894952;30;20321;-78
2023/09/09 12:00:38;;;;;;;10.80;4.60;;;34.80;99.90;;;;;;9920904;30;20201;-79
2023/09/09 12:06:00;;;;;;;6.50;4.50;;;34.90;99.90;;;;;;9939626;29;20209;-79
2023/09/09 12:11:23;;;;;;;7.88;5.13;;;34.60;99.90;;;;;;9929613;29;20201;-79
2023/09/09 12:16:47;;;;;;;6.13;4.97;;;34.00;99.90;;;;;;9928478;29;20235;-79
2023/09/09 12:22:08;;;;;;;8.88;5.10;;;33.90;99.90;;;;;;9928810;29;20212;-79
2023/09/09 12:27:43;;;;;;;5.80;4.38;;;33.70;99.90;;;;;;9929011;29;20292;-79
2023/09/09 12:38:37;;;;;;;7.15;5.13;;;33.90;99.90;;;;;;9893062;30;20214;-79
2023/09/09 12:44:23;;;;;;;5.03;4.53;;;34.10;99.90;;;;;;9902182;30;20229;-79
2023/09/09 12:49:45;;;;;;;6.90;4.72;;;33.70;99.90;;;;;;9919713;29;20243;-80
2023/09/09 12:55:06;;;;;;;9.65;5.57;;;33.60;99.90;;;;;;9929153;29;20239;-79
2023/09/09 13:00:27;;;;;;;6.03;5.13;;;33.50;99.90;;;;;;9928067;29;20217;-79
2023/09/09 13:05:49;;;;;;;6.35;5.43;;;33.10;99.90;;;;;;9926665;29;20212;-79
2023/09/09 13:11:10;;;;;;;12.05;5.72;;;32.50;99.90;;;;;;9926485;29;20209;-79
2023/09/09 13:16:31;;;;;;;5.95;4.72;;;32.10;99.90;;;;;;9929095;29;20308;-79
2023/09/09 13:21:52;;;;;;;7.35;5.13;;;31.80;99.90;;;;;;9911963;29;20403;-79
2023/09/09 13:27:17;;;;;;;6.60;5.07;;;31.40;99.90;;;;;;9915077;29;20216;-79
2023/09/09 13:32:38;;;;;;;6.07;5.28;;;31.20;99.90;;;;;;9891945;30;20210;-79
2023/09/09 13:38:01;;;;;;;7.00;5.45;;;30.90;99.90;;;;;;9900702;29;20232;-79
2023/09/09 13:43:22;;;;;;;9.90;5.60;;;30.60;99.90;;;;;;9927479;29;20550;-79
2023/09/09 13:48:43;;;;;;;9.40;5.47;;;30.30;99.90;;;;;;9914527;29;20237;-79
2023/09/09 13:54:05;;;;;;;7.90;5.30;;;30.20;99.90;;;;;;9898983;30;20233;-79
2023/09/09 13:59:25;;;;;;;6.18;5.25;;;30.00;99.90;;;;;;9916425;29;20550;-79
2023/09/09 14:04:46;;;;;;;8.50;5.57;;;29.90;99.90;;;;;;9906638;29;20205;-79
2023/09/09 14:10:08;;;;;;;5.45;4.90;;;29.90;99.90;;;;;;9941842;29;20235;-79
2023/09/09 14:15:31;;;;;;;8.43;4.95;;;29.80;99.90;;;;;;9934328;30;20239;-80
2023/09/09 14:20:55;;;;;;;9.18;5.57;;;29.60;99.90;;;;;;9933117;29;20220;-80
2023/09/09 14:26:16;;;;;;;7.88;5.03;;;29.60;99.90;;;;;;9934752;29;20201;-79
2023/09/09 14:31:38;;;;;;;6.80;4.80;;;;;;;;;;9904444;29;20518;-80
2023/09/09 14:36:59;;;;;;;6.20;5.35;;;29.40;99.90;;;;;;9933811;29;20232;-80
2023/09/09 14:42:20;;;;;;;5.55;5.05;;;29.20;99.90;;;;;;9899336;29;20221;-80
2023/09/09 14:47:41;;;;;;;5.95;5.15;;;29.10;99.90;;;;;;9913976;29;20519;-79
2023/09/09 14:53:02;;;;;;;6.63;4.88;;;28.80;99.90;;;;;;9895636;30;20208;-80
2023/09/09 14:58:24;;;;;;;6.00;5.18;;;28.60;99.90;;;;;;9914743;29;20241;-79
2023/09/09 15:03:45;;;;;;;5.85;5.25;;;28.50;99.90;;;;;;9922647;29;20213;-80
2023/09/09 15:09:07;;;;;;;11.80;6.03;;;28.40;99.90;;;;;;9914112;29;20197;-79
2023/09/09 15:14:28;;;;;;;7.93;5.55;;;28.20;99.90;;;;;;9915367;29;20236;-80
2023/09/09 15:19:49;;;;;;;6.68;5.28;;;28.00;99.90;;;;;;9908944;29;20210;-80
2023/09/09 15:25:11;;;;;;;7.72;6.35;;;28.00;99.90;;;;;;9896933;30;20515;-80
2023/09/09 15:30:32;;;;;;;7.20;5.35;;;27.80;99.90;;;;;;9910222;29;20210;-80
2023/09/09 15:35:57;;;;;;;6.18;5.50;;;27.70;99.90;;;;;;9906928;29;20241;-80
2023/09/09 15:41:18;;;;;;;7.60;6.22;;;27.60;99.90;;;;;;9925141;29;20229;-80
2023/09/09 15:46:39;;;;;;;11.40;7.05;;;27.50;99.90;;;;;;9932117;29;20224;-80
2023/09/09 15:52:00;;;;;;;8.88;5.90;;;27.40;99.90;;;;;;9910160;29;20293;-80
2023/09/09 15:57:22;;;;;;;10.05;6.18;;;27.20;99.90;;;;;;9894435;30;20240;-79
2023/09/09 16:02:44;;;;;;;7.25;6.55;;;;;;;;;;9923987;29;20213;-80
2023/09/09 16:08:05;;;;;;;11.63;6.30;;;27.00;99.90;;;;;;9927534;29;20206;-80
2023/09/09 16:13:27;;;;;;;15.77;6.60;;;26.90;99.90;;;;;;9931105;29;20523;-79
2023/09/09 16:18:48;;;;;;;14.43;7.45;;;26.60;99.90;;;;;;9928509;29;20459;-79
2023/09/09 16:24:09;;;;;;;10.15;7.00;;;26.40;99.90;;;;;;9917128;30;20232;-79
2023/09/09 16:29:31;;;;;;;12.07;7.28;;;26.30;99.90;;;;;;9909133;29;20214;-80
2023/09/09 16:34:53;;;;;;;17.77;10.43;;;26.20;99.90;;;;;;9907006;29;20324;-80
2023/09/09 16:40:14;;;;;;;12.13;8.82;;;26.00;99.90;;;;;;9959164;29;20212;-79
2023/09/09 16:45:35;;;;;;;16.92;10.00;;;25.90;99.90;;;;;;9960727;29;20256;-80
2023/09/09 16:50:56;;;;;;;15.38;8.65;;;;;;;;;;9926942;29;20553;-79
2023/09/09 16:56:18;;;;;;;18.08;9.27;;;25.70;99.90;;;;;;9928199;30;20320;-80
2023/09/09 17:01:39;;;;;;;20.35;14.07;;;25.50;99.90;;;;;;9926546;29;20213;-80
2023/09/09 17:07:00;;;;;;;20.05;12.00;;;25.40;99.90;;;;;;9894430;29;20572;-80
2023/09/09 17:12:25;;;;;;;19.08;11.73;;;25.30;99.90;;;;;;9929264;29;20472;-79
2023/09/09 17:17:46;;;;;;;16.17;10.60;;;25.10;99.90;;;;;;9926306;29;20308;-80
2023/09/09 17:23:07;;;;;;;18.40;11.75;;;25.00;99.90;;;;;;9928852;30;20208;-80
2023/09/09 17:28:28;;;;;;;14.60;10.48;;;24.90;99.90;;;;;;9913286;29;20227;-79
2023/09/09 17:33:50;;;;;;;14.32;10.75;;;24.80;99.90;;;;;;9928839;29;20296;-80
2023/09/09 17:39:15;;;;;;;18.40;11.07;;;24.60;99.90;;;;;;9925839;29;20217;-80
2023/09/09 17:44:39;;;;;;;13.63;10.73;;;24.50;99.90;;;;;;9927655;30;20227;-80
2023/09/09 17:50:00;;;;;;;15.80;11.00;;;24.30;99.90;;;;;;9905403;30;20519;-80
2023/09/09 17:55:21;;;;;;;15.25;10.35;;;24.10;99.90;;;;;;9901040;29;20312;-80
2023/09/09 18:00:42;;;;;;;17.45;10.98;;;23.90;99.90;;;;;;9890508;29;20202;-80
2023/09/09 18:06:03;;;;;;;16.55;11.20;;;23.70;99.90;;;;;;9906646;29;20521;-79
2023/09/09 18:11:24;;;;;;;14.68;11.20;;;23.60;99.90;;;;;;9927083;30;20557;-78
2023/09/09 18:16:46;;;;;;;17.10;12.60;;;23.40;99.90;;;;;;9912240;29;20611;-78
2023/09/09 18:22:06;;;;;;;19.40;12.27;;;23.30;99.90;;;;;;9924332;29;20385;-79
2023/09/09 18:27:27;;;;;;;19.10;12.82;;;23.10;99.90;;;;;;9925968;29;20258;-79
2023/09/09 18:32:48;;;;;;;18.77;12.05;;;23.10;1.00;;;;;;9926774;30;20197;-78
2023/09/09 18:38:10;;;;;;;16.05;12.10;;;22.80;99.90;;;;;;9926259;29;20263;-78
2023/09/09 18:43:31;;;;;;;18.50;13.52;;;22.70;99.90;;;;;;9926318;30;20258;-79
2023/09/09 18:48:52;;;;;;;17.75;12.02;;;;;;;;;;9922828;29;20217;-79
2023/09/09 18:54:13;;;;;;;14.23;11.93;;;22.70;99.90;;;;;;9932988;30;20543;-79
2023/09/09 18:59:35;;;;;;;22.27;12.73;;;;;;;;;;9896634;30;20217;-78
2023/09/09 19:04:56;;;;;;;18.10;12.98;;;;;;;;;;9928331;29;20209;-79
2023/09/09 19:10:20;;;;;;;19.00;12.70;;;;;;;;;;9929740;30;20217;-79
2023/09/09 19:15:41;;;;;;;18.13;11.38;;;22.20;99.90;;;;;;9917741;29;20241;-77
2023/09/09 19:21:02;;;;;;;18.10;11.18;;;22.10;99.90;;;;;;9924656;29;20267;-79
2023/09/09 19:26:23;;;;;;;15.90;11.63;;;22.00;99.90;;;;;;9897245;29;20210;-79
2023/09/09 19:31:44;;;;;;;16.67;11.73;;;21.80;99.90;;;;;;9894644;30;20561;-78
2023/09/09 19:37:06;;;;;;;22.60;12.55;;;21.70;99.90;;;;;;9907636;29;20240;-79
2023/09/09 19:42:29;;;;;;;18.40;13.48;;;21.60;99.90;;;;;;9932230;29;20193;-78
2023/09/09 19:47:50;;;;;;;17.23;12.30;;;21.50;1.00;;;;;;9925545;29;20217;-78
2023/09/09 19:53:13;;;;;;;20.48;13.02;;;21.40;1.00;;;;;;9913890;30;20205;-78
2023/09/09 19:58:35;;;;;;;17.45;12.73;;;21.30;1.00;;;;;;9904276;29;20302;-79
2023/09/09 20:03:56;;;;;;;19.27;11.75;;;21.20;1.00;;;;;;9917110;29;20456;-78
2023/09/09 20:09:17;;;;;;;19.98;12.27;;;21.10;1.00;;;;;;9913110;29;20213;-78
2023/09/09 20:14:38;;;;;;;16.63;10.80;;;21.00;1.00;;;;;;9930060;30;20300;-78
2023/09/09 20:19:59;;;;;;;16.00;10.75;;;20.90;1.00;;;;;;9908178;29;20262;-79
2023/09/09 20:25:21;;;;;;;17.25;10.93;;;20.90;1.00;;;;;;9892660;30;20201;-78
2023/09/09 20:30:42;;;;;;;16.65;11.27;;;;;;;;;;9904589;29;20221;-79
2023/09/09 20:36:04;;;;;;;16.88;11.98;;;;;;;;;;9895498;29;20229;-79
2023/09/09 20:41:26;;;;;;;14.10;10.50;;;;;;;;;;9929112;29;20254;-78
2023/09/09 20:46:47;;;;;;;13.70;8.80;;;;;;;;;;9925181;29;20212;-78
2023/09/09 20:52:10;;;;;;;13.43;9.40;;;;;;;;;;9920163;29;20207;-79
2023/09/09 20:57:31;;;;;;;13.93;10.02;;;;;;;;;;9923093;29;20272;-79
2023/09/09 21:02:52;;;;;;;16.65;10.55;;;;;;;;;;9922782;29;20288;-78
2023/09/09 21:08:14;;;;;;;13.63;9.80;;;;;;;;;;9905681;29;20218;-79
2023/09/09 21:13:35;;;;;;;11.30;8.82;;;;;;;;;;9915004;29;20217;-79
2023/09/09 21:18:56;;;;;;;12.02;8.70;;;;;;;;;;9899587;29;20218;-79
2023/09/09 21:24:20;;;;;;;15.38;9.82;;;;;;;;;;9891862;30;20205;-79
2023/09/09 21:29:41;;;;;;;14.30;9.25;;;;;;;;;;9925478;29;20455;-80
2023/09/09 21:35:03;;;;;;;14.43;9.77;;;20.10;1.00;;;;;;9926807;29;20278;-80
2023/09/09 21:40:25;;;;;;;14.07;9.63;;;;;;;;;;9921057;30;20269;-80
2023/09/09 21:45:46;;;;;;;14.48;10.02;;;19.60;1.00;;;;;;9895613;29;20414;-80
2023/09/09 21:51:07;;;;;;;13.63;10.43;;;19.80;1.00;;;;;;9927862;29;20216;-79
2023/09/09 21:56:28;;;;;;;17.10;11.90;;;19.70;1.00;;;;;;9926355;29;20293;-80
2023/09/09 22:01:49;;;;;;;14.98;11.70;;;19.60;1.00;;;;;;9906533;29;20220;-80
2023/09/09 22:07:11;;;;;;;16.92;12.23;;;19.50;1.00;;;;;;9919774;29;20468;-79
2023/09/09 22:12:32;;;;;;;22.27;13.52;;;19.50;1.00;;;;;;9929865;29;20205;-80
2023/09/09 22:17:54;;;;;;;20.80;13.32;;;;;;;;;;9924936;29;20229;-79
2023/09/09 22:23:15;;;;;;;17.13;11.95;;;19.30;1.00;;;;;;9913244;29;20198;-79
2023/09/09 22:28:36;;;;;;;20.52;12.63;;;19.20;1.00;;;;;;9955517;29;20216;-79
2023/09/09 22:33:57;;;;;;;18.90;12.63;;;19.20;86.70;;;;;;9939429;29;20213;-80
2023/09/09 22:39:18;;;;;;;25.42;12.88;;;19.20;99.90;;;;;;9933773;29;20284;-80
2023/09/09 22:44:39;;;;;;;20.95;13.60;;;19.20;99.90;;;;;;9933421;30;20197;-80
2023/09/09 22:50:00;;;;;;;20.67;13.55;;;19.10;99.90;;;;;;9962659;29;20212;-79
2023/09/09 22:55:47;;;;;;;21.92;13.35;;;19.00;8.20;;;;;;9899287;29;20272;-79
2023/09/09 23:01:11;;;;;;;24.23;13.82;;;;;;;;;;9971367;29;20204;-79
2023/09/09 23:06:33;;;;;;;24.65;12.32;;;19.00;99.90;;;;;;9964898;29;20220;-80
2023/09/09 23:12:37;;;;;;;17.38;11.70;;;18.90;99.90;;;;;;9908143;30;20197;-80
2023/09/09 23:17:58;;;;;;;14.75;10.45;;;19.00;99.90;;;;;;9898986;29;20611;-80
2023/09/09 23:23:57;;;;;;;25.00;12.15;;;18.90;99.90;;;;;;9895180;30;20231;-80
2023/09/09 23:40:21;;;;;;;14.57;10.82;;;18.70;99.90;;;;;;9935599;29;20220;-79
2023/09/09 23:45:42;;;;;;;17.15;10.43;;;18.70;99.90;;;;;;9930965;30;20205;-80
2023/09/09 23:51:03;;;;;;;23.38;12.73;;;18.70;99.90;;;;;;9934469;29;20210;-79
2023/09/09 23:56:24;;;;;;;24.90;15.13;;;18.60;99.90;;;;;;9931772;30;20241;-80
